sensor_id;sensor_type;location;lat;lon;timestamp;P1;durP1;ratioP1;P2;durP2;ratioP2
37280;SDS011;23169;41.804;12.596;2023-04-30T00:03:43;23.38;;;9.32;;
37280;SDS011;23169;41.804;12.596;2023-04-30T00:06:11;21.92;;;9.45;;
37280;SDS011;23169;41.804;12.596;2023-04-30T00:08:40;26.00;;;9.88;;
37280;SDS011;23169;41.804;12.596;2023-04-30T00:11:09;23.55;;;9.52;;
37280;SDS011;23169;41.804;12.596;2023-04-30T00:13:38;19.85;;;9.52;;
37280;SDS011;23169;41.804;12.596;2023-04-30T00:16:07;25.33;;;9.82;;
37280;SDS011;23169;41.804;12.596;2023-04-30T00:18:37;21.77;;;10.10;;
37280;SDS011;23169;41.804;12.596;2023-04-30T00:21:07;20.77;;;10.02;;
37280;SDS011;23169;41.804;12.596;2023-04-30T00:23:37;23.85;;;10.43;;
37280;SDS011;23169;41.804;12.596;2023-04-30T00:26:06;20.50;;;9.75;;
37280;SDS011;23169;41.804;12.596;2023-04-30T00:28:35;23.75;;;11.10;;
37280;SDS011;23169;41.804;12.596;2023-04-30T00:31:04;24.60;;;9.60;;
37280;SDS011;23169;41.804;12.596;2023-04-30T00:33:36;23.25;;;10.55;;
37280;SDS011;23169;41.804;12.596;2023-04-30T00:36:05;22.80;;;10.40;;
37280;SDS011;23169;41.804;12.596;2023-04-30T00:38:34;21.25;;;9.90;;
37280;SDS011;23169;41.804;12.596;2023-04-30T00:41:03;24.80;;;10.57;;
37280;SDS011;23169;41.804;12.596;2023-04-30T00:43:37;26.35;;;11.68;;
37280;SDS011;23169;41.804;12.596;2023-04-30T00:46:06;22.60;;;10.68;;
37280;SDS011;23169;41.804;12.596;2023-04-30T00:48:35;25.27;;;9.88;;
37280;SDS011;23169;41.804;12.596;2023-04-30T00:51:04;21.77;;;9.80;;
37280;SDS011;23169;41.804;12.596;2023-04-30T00:53:34;22.35;;;9.88;;
37280;SDS011;23169;41.804;12.596;2023-04-30T00:56:04;20.85;;;9.88;;
37280;SDS011;23169;41.804;12.596;2023-04-30T00:58:36;25.20;;;10.80;;
37280;SDS011;23169;41.804;12.596;2023-04-30T01:01:05;23.65;;;10.43;;
37280;SDS011;23169;41.804;12.596;2023-04-30T01:03:34;21.10;;;9.00;;
37280;SDS011;23169;41.804;12.596;2023-04-30T01:06:03;23.88;;;9.13;;
37280;SDS011;23169;41.804;12.596;2023-04-30T01:08:33;21.17;;;9.63;;
37280;SDS011;23169;41.804;12.596;2023-04-30T01:16:39;24.13;;;10.35;;
37280;SDS011;23169;41.804;12.596;2023-04-30T01:19:19;22.58;;;9.35;;
37280;SDS011;23169;41.804;12.596;2023-04-30T01:21:58;29.70;;;9.55;;
37280;SDS011;23169;41.804;12.596;2023-04-30T01:24:42;22.15;;;9.43;;
37280;SDS011;23169;41.804;12.596;2023-04-30T01:30:24;19.15;;;8.88;;
37280;SDS011;23169;41.804;12.596;2023-04-30T01:32:55;22.55;;;8.65;;
37280;SDS011;23169;41.804;12.596;2023-04-30T01:35:30;21.75;;;10.20;;
37280;SDS011;23169;41.804;12.596;2023-04-30T01:41:33;22.23;;;10.15;;
37280;SDS011;23169;41.804;12.596;2023-04-30T01:44:13;25.58;;;10.00;;
37280;SDS011;23169;41.804;12.596;2023-04-30T01:53:10;20.40;;;10.25;;
37280;SDS011;23169;41.804;12.596;2023-04-30T01:55:55;22.60;;;9.77;;
37280;SDS011;23169;41.804;12.596;2023-04-30T01:58:26;28.15;;;10.48;;
37280;SDS011;23169;41.804;12.596;2023-04-30T02:00:56;25.38;;;10.43;;
37280;SDS011;23169;41.804;12.596;2023-04-30T02:03:25;19.13;;;9.57;;
37280;SDS011;23169;41.804;12.596;2023-04-30T02:05:55;25.13;;;10.85;;
37280;SDS011;23169;41.804;12.596;2023-04-30T02:08:25;22.20;;;11.68;;
37280;SDS011;23169;41.804;12.596;2023-04-30T02:10:54;24.67;;;9.80;;
37280;SDS011;23169;41.804;12.596;2023-04-30T02:13:24;25.25;;;10.20;;
37280;SDS011;23169;41.804;12.596;2023-04-30T02:15:53;22.00;;;10.35;;
37280;SDS011;23169;41.804;12.596;2023-04-30T02:18:22;25.90;;;11.40;;
37280;SDS011;23169;41.804;12.596;2023-04-30T02:20:51;24.63;;;12.18;;
37280;SDS011;23169;41.804;12.596;2023-04-30T02:23:37;24.38;;;10.07;;
37280;SDS011;23169;41.804;12.596;2023-04-30T02:26:10;23.60;;;9.90;;
37280;SDS011;23169;41.804;12.596;2023-04-30T02:28:42;26.05;;;11.07;;
37280;SDS011;23169;41.804;12.596;2023-04-30T02:31:14;23.17;;;10.75;;
37280;SDS011;23169;41.804;12.596;2023-04-30T02:33:45;26.25;;;11.05;;
37280;SDS011;23169;41.804;12.596;2023-04-30T02:36:27;21.92;;;10.73;;
37280;SDS011;23169;41.804;12.596;2023-04-30T02:38:59;21.48;;;10.80;;
37280;SDS011;23169;41.804;12.596;2023-04-30T02:41:30;25.33;;;10.80;;
37280;SDS011;23169;41.804;12.596;2023-04-30T02:43:59;21.63;;;10.57;;
37280;SDS011;23169;41.804;12.596;2023-04-30T02:46:29;24.15;;;10.52;;
37280;SDS011;23169;41.804;12.596;2023-04-30T02:48:58;26.30;;;11.18;;
37280;SDS011;23169;41.804;12.596;2023-04-30T02:51:26;23.10;;;10.10;;
37280;SDS011;23169;41.804;12.596;2023-04-30T02:53:55;22.23;;;10.25;;
37280;SDS011;23169;41.804;12.596;2023-04-30T02:56:24;27.85;;;10.55;;
37280;SDS011;23169;41.804;12.596;2023-04-30T02:58:53;21.52;;;10.40;;
37280;SDS011;23169;41.804;12.596;2023-04-30T03:01:22;22.38;;;9.93;;
37280;SDS011;23169;41.804;12.596;2023-04-30T03:03:50;27.95;;;10.95;;
37280;SDS011;23169;41.804;12.596;2023-04-30T03:06:19;21.23;;;10.02;;
37280;SDS011;23169;41.804;12.596;2023-04-30T03:08:48;20.35;;;10.52;;
37280;SDS011;23169;41.804;12.596;2023-04-30T03:11:17;21.48;;;9.80;;
37280;SDS011;23169;41.804;12.596;2023-04-30T03:13:46;23.48;;;11.43;;
37280;SDS011;23169;41.804;12.596;2023-04-30T03:16:21;20.02;;;10.63;;
37280;SDS011;23169;41.804;12.596;2023-04-30T03:18:51;22.77;;;11.13;;
37280;SDS011;23169;41.804;12.596;2023-04-30T03:21:19;20.85;;;10.00;;
37280;SDS011;23169;41.804;12.596;2023-04-30T03:23:48;24.42;;;10.68;;
37280;SDS011;23169;41.804;12.596;2023-04-30T03:26:17;21.90;;;10.65;;
37280;SDS011;23169;41.804;12.596;2023-04-30T03:28:46;24.08;;;10.80;;
37280;SDS011;23169;41.804;12.596;2023-04-30T03:31:15;28.77;;;11.30;;
37280;SDS011;23169;41.804;12.596;2023-04-30T03:33:43;22.02;;;10.45;;
37280;SDS011;23169;41.804;12.596;2023-04-30T03:36:12;24.67;;;10.95;;
37280;SDS011;23169;41.804;12.596;2023-04-30T03:38:41;23.92;;;12.13;;
37280;SDS011;23169;41.804;12.596;2023-04-30T03:41:10;23.35;;;10.77;;
37280;SDS011;23169;41.804;12.596;2023-04-30T03:43:39;23.77;;;11.25;;
37280;SDS011;23169;41.804;12.596;2023-04-30T03:46:09;20.55;;;10.38;;
37280;SDS011;23169;41.804;12.596;2023-04-30T03:48:39;24.98;;;11.35;;
37280;SDS011;23169;41.804;12.596;2023-04-30T03:51:07;24.63;;;11.32;;
37280;SDS011;23169;41.804;12.596;2023-04-30T03:53:36;20.23;;;11.13;;
37280;SDS011;23169;41.804;12.596;2023-04-30T03:56:05;22.38;;;10.77;;
37280;SDS011;23169;41.804;12.596;2023-04-30T03:58:35;22.60;;;11.82;;
37280;SDS011;23169;41.804;12.596;2023-04-30T04:01:03;23.02;;;11.57;;
37280;SDS011;23169;41.804;12.596;2023-04-30T04:03:33;22.60;;;9.82;;
37280;SDS011;23169;41.804;12.596;2023-04-30T04:06:02;23.15;;;10.50;;
37280;SDS011;23169;41.804;12.596;2023-04-30T04:08:36;23.42;;;10.70;;
37280;SDS011;23169;41.804;12.596;2023-04-30T04:11:05;24.23;;;11.50;;
37280;SDS011;23169;41.804;12.596;2023-04-30T04:13:34;23.40;;;11.23;;
37280;SDS011;23169;41.804;12.596;2023-04-30T04:16:03;23.67;;;10.20;;
37280;SDS011;23169;41.804;12.596;2023-04-30T04:18:33;22.10;;;10.38;;
37280;SDS011;23169;41.804;12.596;2023-04-30T04:21:02;25.08;;;10.77;;
37280;SDS011;23169;41.804;12.596;2023-04-30T04:23:32;26.92;;;11.15;;
37280;SDS011;23169;41.804;12.596;2023-04-30T04:26:01;26.98;;;10.95;;
37280;SDS011;23169;41.804;12.596;2023-04-30T04:28:31;22.88;;;10.93;;
37280;SDS011;23169;41.804;12.596;2023-04-30T04:31:00;22.92;;;10.38;;
37280;SDS011;23169;41.804;12.596;2023-04-30T04:33:30;20.95;;;10.13;;
37280;SDS011;23169;41.804;12.596;2023-04-30T04:35:59;20.50;;;10.43;;
37280;SDS011;23169;41.804;12.596;2023-04-30T04:38:29;26.33;;;10.60;;
37280;SDS011;23169;41.804;12.596;2023-04-30T04:41:00;22.42;;;11.07;;
37280;SDS011;23169;41.804;12.596;2023-04-30T04:43:31;25.92;;;11.15;;
37280;SDS011;23169;41.804;12.596;2023-04-30T04:46:02;22.10;;;10.10;;
37280;SDS011;23169;41.804;12.596;2023-04-30T04:48:33;25.38;;;10.55;;
37280;SDS011;23169;41.804;12.596;2023-04-30T04:51:02;21.38;;;11.15;;
37280;SDS011;23169;41.804;12.596;2023-04-30T04:53:31;23.40;;;10.77;;
37280;SDS011;23169;41.804;12.596;2023-04-30T04:55:59;21.85;;;10.05;;
37280;SDS011;23169;41.804;12.596;2023-04-30T04:58:28;22.15;;;9.82;;
37280;SDS011;23169;41.804;12.596;2023-04-30T05:00:57;22.15;;;11.27;;
37280;SDS011;23169;41.804;12.596;2023-04-30T05:03:29;22.48;;;10.13;;
37280;SDS011;23169;41.804;12.596;2023-04-30T05:05:59;25.80;;;10.90;;
37280;SDS011;23169;41.804;12.596;2023-04-30T05:08:31;21.70;;;10.75;;
37280;SDS011;23169;41.804;12.596;2023-04-30T05:11:00;22.98;;;9.98;;
37280;SDS011;23169;41.804;12.596;2023-04-30T05:13:29;22.85;;;9.98;;
37280;SDS011;23169;41.804;12.596;2023-04-30T05:15:58;23.25;;;10.85;;
37280;SDS011;23169;41.804;12.596;2023-04-30T05:18:30;22.85;;;10.50;;
37280;SDS011;23169;41.804;12.596;2023-04-30T05:20:59;21.17;;;10.82;;
37280;SDS011;23169;41.804;12.596;2023-04-30T05:23:29;24.05;;;10.73;;
37280;SDS011;23169;41.804;12.596;2023-04-30T05:25:57;22.23;;;10.68;;
37280;SDS011;23169;41.804;12.596;2023-04-30T05:28:25;21.08;;;10.13;;
37280;SDS011;23169;41.804;12.596;2023-04-30T05:30:54;22.92;;;9.98;;
37280;SDS011;23169;41.804;12.596;2023-04-30T05:33:23;22.30;;;10.10;;
37280;SDS011;23169;41.804;12.596;2023-04-30T05:35:51;21.48;;;10.82;;
37280;SDS011;23169;41.804;12.596;2023-04-30T05:38:20;23.38;;;9.68;;
37280;SDS011;23169;41.804;12.596;2023-04-30T05:40:50;17.52;;;8.52;;
37280;SDS011;23169;41.804;12.596;2023-04-30T05:43:19;19.77;;;9.32;;
37280;SDS011;23169;41.804;12.596;2023-04-30T05:45:48;20.55;;;9.13;;
37280;SDS011;23169;41.804;12.596;2023-04-30T05:48:17;18.77;;;9.35;;
37280;SDS011;23169;41.804;12.596;2023-04-30T05:50:48;23.52;;;9.50;;
37280;SDS011;23169;41.804;12.596;2023-04-30T05:53:18;19.13;;;9.52;;
37280;SDS011;23169;41.804;12.596;2023-04-30T05:55:47;19.85;;;9.00;;
37280;SDS011;23169;41.804;12.596;2023-04-30T05:58:16;21.38;;;9.90;;
37280;SDS011;23169;41.804;12.596;2023-04-30T06:00:47;22.67;;;10.38;;
37280;SDS011;23169;41.804;12.596;2023-04-30T06:03:17;25.23;;;10.18;;
37280;SDS011;23169;41.804;12.596;2023-04-30T06:05:47;21.02;;;10.35;;
37280;SDS011;23169;41.804;12.596;2023-04-30T06:08:16;25.52;;;10.68;;
37280;SDS011;23169;41.804;12.596;2023-04-30T06:10:44;21.60;;;9.93;;
37280;SDS011;23169;41.804;12.596;2023-04-30T06:13:13;21.23;;;10.50;;
37280;SDS011;23169;41.804;12.596;2023-04-30T06:15:43;20.63;;;9.80;;
37280;SDS011;23169;41.804;12.596;2023-04-30T06:18:13;20.25;;;10.10;;
37280;SDS011;23169;41.804;12.596;2023-04-30T06:20:41;20.33;;;9.65;;
37280;SDS011;23169;41.804;12.596;2023-04-30T06:23:10;20.05;;;9.27;;
37280;SDS011;23169;41.804;12.596;2023-04-30T06:25:40;19.20;;;8.52;;
37280;SDS011;23169;41.804;12.596;2023-04-30T06:28:08;17.90;;;9.45;;
37280;SDS011;23169;41.804;12.596;2023-04-30T06:30:37;25.08;;;11.63;;
37280;SDS011;23169;41.804;12.596;2023-04-30T06:33:05;22.98;;;10.95;;
37280;SDS011;23169;41.804;12.596;2023-04-30T06:35:34;22.35;;;10.43;;
37280;SDS011;23169;41.804;12.596;2023-04-30T06:38:03;24.67;;;10.82;;
37280;SDS011;23169;41.804;12.596;2023-04-30T06:40:34;19.25;;;9.13;;
37280;SDS011;23169;41.804;12.596;2023-04-30T06:43:02;20.10;;;9.15;;
37280;SDS011;23169;41.804;12.596;2023-04-30T06:45:32;17.38;;;8.07;;
37280;SDS011;23169;41.804;12.596;2023-04-30T06:48:03;11.93;;;6.70;;
37280;SDS011;23169;41.804;12.596;2023-04-30T06:50:32;17.70;;;6.47;;
37280;SDS011;23169;41.804;12.596;2023-04-30T06:53:01;13.15;;;6.28;;
37280;SDS011;23169;41.804;12.596;2023-04-30T06:55:30;13.98;;;6.78;;
37280;SDS011;23169;41.804;12.596;2023-04-30T06:57:58;13.93;;;7.00;;
37280;SDS011;23169;41.804;12.596;2023-04-30T07:00:27;19.83;;;8.30;;
37280;SDS011;23169;41.804;12.596;2023-04-30T07:02:56;15.68;;;7.13;;
37280;SDS011;23169;41.804;12.596;2023-04-30T07:05:27;15.15;;;5.90;;
37280;SDS011;23169;41.804;12.596;2023-04-30T07:07:57;13.57;;;6.13;;
37280;SDS011;23169;41.804;12.596;2023-04-30T07:10:28;14.32;;;5.63;;
37280;SDS011;23169;41.804;12.596;2023-04-30T07:12:58;15.45;;;6.63;;
37280;SDS011;23169;41.804;12.596;2023-04-30T07:15:27;12.65;;;6.53;;
37280;SDS011;23169;41.804;12.596;2023-04-30T07:17:56;15.52;;;5.97;;
37280;SDS011;23169;41.804;12.596;2023-04-30T07:20:24;12.27;;;5.97;;
37280;SDS011;23169;41.804;12.596;2023-04-30T07:22:53;14.20;;;6.18;;
37280;SDS011;23169;41.804;12.596;2023-04-30T07:25:22;14.48;;;5.53;;
37280;SDS011;23169;41.804;12.596;2023-04-30T07:27:51;13.55;;;5.80;;
37280;SDS011;23169;41.804;12.596;2023-04-30T07:30:21;17.13;;;6.75;;
37280;SDS011;23169;41.804;12.596;2023-04-30T07:32:52;9.82;;;5.55;;
37280;SDS011;23169;41.804;12.596;2023-04-30T07:35:21;12.77;;;5.57;;
37280;SDS011;23169;41.804;12.596;2023-04-30T07:37:52;12.32;;;5.40;;
37280;SDS011;23169;41.804;12.596;2023-04-30T07:40:21;16.25;;;5.53;;
37280;SDS011;23169;41.804;12.596;2023-04-30T07:42:49;10.10;;;4.97;;
37280;SDS011;23169;41.804;12.596;2023-04-30T07:45:18;10.98;;;5.38;;
37280;SDS011;23169;41.804;12.596;2023-04-30T07:47:47;14.05;;;5.45;;
37280;SDS011;23169;41.804;12.596;2023-04-30T07:50:16;11.80;;;5.68;;
37280;SDS011;23169;41.804;12.596;2023-04-30T07:52:47;13.35;;;6.03;;
37280;SDS011;23169;41.804;12.596;2023-04-30T07:55:17;12.32;;;5.38;;
37280;SDS011;23169;41.804;12.596;2023-04-30T07:57:45;15.10;;;6.90;;
37280;SDS011;23169;41.804;12.596;2023-04-30T08:00:13;14.63;;;6.43;;
37280;SDS011;23169;41.804;12.596;2023-04-30T08:02:42;14.88;;;6.05;;
37280;SDS011;23169;41.804;12.596;2023-04-30T08:05:13;16.42;;;6.90;;
37280;SDS011;23169;41.804;12.596;2023-04-30T08:07:42;14.07;;;6.60;;
37280;SDS011;23169;41.804;12.596;2023-04-30T08:10:11;16.35;;;6.30;;
37280;SDS011;23169;41.804;12.596;2023-04-30T08:12:40;13.43;;;6.32;;
37280;SDS011;23169;41.804;12.596;2023-04-30T08:15:09;14.65;;;6.10;;
37280;SDS011;23169;41.804;12.596;2023-04-30T08:17:38;16.50;;;6.35;;
37280;SDS011;23169;41.804;12.596;2023-04-30T08:20:07;13.68;;;5.72;;
37280;SDS011;23169;41.804;12.596;2023-04-30T08:22:36;9.85;;;5.72;;
37280;SDS011;23169;41.804;12.596;2023-04-30T08:25:05;13.23;;;5.82;;
37280;SDS011;23169;41.804;12.596;2023-04-30T08:27:35;13.90;;;5.57;;
37280;SDS011;23169;41.804;12.596;2023-04-30T08:30:04;15.55;;;5.90;;
37280;SDS011;23169;41.804;12.596;2023-04-30T08:32:34;10.90;;;5.80;;
37280;SDS011;23169;41.804;12.596;2023-04-30T08:35:04;14.13;;;5.63;;
37280;SDS011;23169;41.804;12.596;2023-04-30T08:37:33;10.95;;;5.35;;
37280;SDS011;23169;41.804;12.596;2023-04-30T08:40:02;19.20;;;5.88;;
37280;SDS011;23169;41.804;12.596;2023-04-30T08:42:32;11.02;;;5.38;;
37280;SDS011;23169;41.804;12.596;2023-04-30T08:45:04;14.23;;;5.95;;
37280;SDS011;23169;41.804;12.596;2023-04-30T08:47:36;11.70;;;5.72;;
37280;SDS011;23169;41.804;12.596;2023-04-30T08:50:08;14.55;;;5.75;;
37280;SDS011;23169;41.804;12.596;2023-04-30T08:52:36;12.27;;;5.45;;
37280;SDS011;23169;41.804;12.596;2023-04-30T08:55:11;12.55;;;5.22;;
37280;SDS011;23169;41.804;12.596;2023-04-30T08:57:40;13.63;;;5.75;;
37280;SDS011;23169;41.804;12.596;2023-04-30T09:00:09;13.05;;;5.30;;
37280;SDS011;23169;41.804;12.596;2023-04-30T09:02:39;12.57;;;5.60;;
37280;SDS011;23169;41.804;12.596;2023-04-30T09:05:12;14.30;;;5.32;;
37280;SDS011;23169;41.804;12.596;2023-04-30T09:07:42;14.45;;;5.50;;
37280;SDS011;23169;41.804;12.596;2023-04-30T09:10:19;17.42;;;5.50;;
37280;SDS011;23169;41.804;12.596;2023-04-30T09:15:37;10.65;;;4.38;;
37280;SDS011;23169;41.804;12.596;2023-04-30T09:18:11;9.35;;;4.50;;
37280;SDS011;23169;41.804;12.596;2023-04-30T09:20:52;7.97;;;4.53;;
37280;SDS011;23169;41.804;12.596;2023-04-30T09:23:21;8.45;;;3.63;;
37280;SDS011;23169;41.804;12.596;2023-04-30T09:25:50;7.55;;;3.65;;
37280;SDS011;23169;41.804;12.596;2023-04-30T09:28:21;14.35;;;4.10;;
37280;SDS011;23169;41.804;12.596;2023-04-30T09:30:57;7.80;;;3.38;;
37280;SDS011;23169;41.804;12.596;2023-04-30T09:33:26;6.47;;;3.17;;
37280;SDS011;23169;41.804;12.596;2023-04-30T09:36:17;4.47;;;2.83;;
37280;SDS011;23169;41.804;12.596;2023-04-30T09:38:46;4.70;;;2.88;;
37280;SDS011;23169;41.804;12.596;2023-04-30T09:43:54;9.02;;;3.42;;
37280;SDS011;23169;41.804;12.596;2023-04-30T09:46:33;9.95;;;3.15;;
37280;SDS011;23169;41.804;12.596;2023-04-30T09:49:05;7.85;;;3.53;;
37280;SDS011;23169;41.804;12.596;2023-04-30T09:51:35;9.82;;;3.15;;
37280;SDS011;23169;41.804;12.596;2023-04-30T09:54:24;7.10;;;3.10;;
37280;SDS011;23169;41.804;12.596;2023-04-30T09:56:59;6.88;;;3.30;;
37280;SDS011;23169;41.804;12.596;2023-04-30T09:59:33;5.00;;;2.90;;
37280;SDS011;23169;41.804;12.596;2023-04-30T10:02:04;8.48;;;3.30;;
37280;SDS011;23169;41.804;12.596;2023-04-30T10:04:35;6.85;;;3.55;;
37280;SDS011;23169;41.804;12.596;2023-04-30T10:07:07;11.45;;;4.25;;
37280;SDS011;23169;41.804;12.596;2023-04-30T10:09:47;6.15;;;3.42;;
37280;SDS011;23169;41.804;12.596;2023-04-30T10:12:30;7.93;;;3.47;;
37280;SDS011;23169;41.804;12.596;2023-04-30T10:15:15;6.22;;;3.10;;
37280;SDS011;23169;41.804;12.596;2023-04-30T10:17:49;8.90;;;3.47;;
37280;SDS011;23169;41.804;12.596;2023-04-30T10:20:24;8.00;;;2.88;;
37280;SDS011;23169;41.804;12.596;2023-04-30T10:22:53;7.28;;;3.10;;
37280;SDS011;23169;41.804;12.596;2023-04-30T10:25:22;8.32;;;3.30;;
37280;SDS011;23169;41.804;12.596;2023-04-30T10:27:52;6.00;;;3.13;;
37280;SDS011;23169;41.804;12.596;2023-04-30T10:30:21;8.90;;;3.42;;
37280;SDS011;23169;41.804;12.596;2023-04-30T10:35:37;10.70;;;3.22;;
37280;SDS011;23169;41.804;12.596;2023-04-30T10:38:20;7.72;;;3.50;;
37280;SDS011;23169;41.804;12.596;2023-04-30T10:40:58;6.88;;;3.10;;
37280;SDS011;23169;41.804;12.596;2023-04-30T10:43:29;7.38;;;3.30;;
37280;SDS011;23169;41.804;12.596;2023-04-30T10:45:58;8.13;;;4.00;;
37280;SDS011;23169;41.804;12.596;2023-04-30T10:48:28;6.43;;;3.35;;
37280;SDS011;23169;41.804;12.596;2023-04-30T10:51:01;8.18;;;3.03;;
37280;SDS011;23169;41.804;12.596;2023-04-30T10:53:35;7.25;;;2.75;;
37280;SDS011;23169;41.804;12.596;2023-04-30T10:56:04;8.18;;;2.90;;
37280;SDS011;23169;41.804;12.596;2023-04-30T10:58:38;8.77;;;3.03;;
37280;SDS011;23169;41.804;12.596;2023-04-30T11:01:11;8.15;;;3.13;;
37280;SDS011;23169;41.804;12.596;2023-04-30T11:09:23;10.60;;;3.50;;
37280;SDS011;23169;41.804;12.596;2023-04-30T11:12:18;4.18;;;3.20;;
37280;SDS011;23169;41.804;12.596;2023-04-30T11:14:48;4.60;;;2.88;;
37280;SDS011;23169;41.804;12.596;2023-04-30T11:17:21;5.43;;;3.00;;
37280;SDS011;23169;41.804;12.596;2023-04-30T11:19:51;7.93;;;3.42;;
37280;SDS011;23169;41.804;12.596;2023-04-30T11:22:21;13.10;;;4.03;;
37280;SDS011;23169;41.804;12.596;2023-04-30T11:27:27;6.80;;;3.45;;
37280;SDS011;23169;41.804;12.596;2023-04-30T11:29:57;10.55;;;3.92;;
37280;SDS011;23169;41.804;12.596;2023-04-30T11:32:30;5.15;;;3.38;;
37280;SDS011;23169;41.804;12.596;2023-04-30T11:35:02;7.32;;;3.70;;
37280;SDS011;23169;41.804;12.596;2023-04-30T11:37:32;8.70;;;3.60;;
37280;SDS011;23169;41.804;12.596;2023-04-30T11:40:06;12.80;;;4.78;;
37280;SDS011;23169;41.804;12.596;2023-04-30T11:42:38;10.18;;;5.18;;
37280;SDS011;23169;41.804;12.596;2023-04-30T11:45:09;11.80;;;5.38;;
37280;SDS011;23169;41.804;12.596;2023-04-30T11:47:40;15.48;;;5.55;;
37280;SDS011;23169;41.804;12.596;2023-04-30T11:50:15;11.10;;;5.30;;
37280;SDS011;23169;41.804;12.596;2023-04-30T11:52:56;12.95;;;5.50;;
37280;SDS011;23169;41.804;12.596;2023-04-30T11:55:26;14.60;;;5.65;;
37280;SDS011;23169;41.804;12.596;2023-04-30T11:57:56;10.02;;;5.25;;
37280;SDS011;23169;41.804;12.596;2023-04-30T12:00:29;12.85;;;5.45;;
37280;SDS011;23169;41.804;12.596;2023-04-30T12:02:59;9.93;;;5.57;;
37280;SDS011;23169;41.804;12.596;2023-04-30T12:05:30;13.10;;;6.10;;
37280;SDS011;23169;41.804;12.596;2023-04-30T12:07:59;15.73;;;6.35;;
37280;SDS011;23169;41.804;12.596;2023-04-30T12:10:31;19.48;;;7.15;;
37280;SDS011;23169;41.804;12.596;2023-04-30T12:13:01;16.73;;;7.75;;
37280;SDS011;23169;41.804;12.596;2023-04-30T12:15:30;16.92;;;7.78;;
37280;SDS011;23169;41.804;12.596;2023-04-30T12:18:01;14.70;;;6.60;;
37280;SDS011;23169;41.804;12.596;2023-04-30T12:20:43;17.48;;;7.78;;
37280;SDS011;23169;41.804;12.596;2023-04-30T12:23:12;17.38;;;6.60;;
37280;SDS011;23169;41.804;12.596;2023-04-30T12:25:41;11.45;;;6.03;;
37280;SDS011;23169;41.804;12.596;2023-04-30T12:28:14;17.30;;;7.43;;
37280;SDS011;23169;41.804;12.596;2023-04-30T12:30:43;13.95;;;7.38;;
37280;SDS011;23169;41.804;12.596;2023-04-30T12:33:11;14.23;;;7.15;;
37280;SDS011;23169;41.804;12.596;2023-04-30T12:35:41;12.63;;;5.88;;
37280;SDS011;23169;41.804;12.596;2023-04-30T12:38:14;17.48;;;6.20;;
37280;SDS011;23169;41.804;12.596;2023-04-30T12:40:45;15.70;;;6.10;;
37280;SDS011;23169;41.804;12.596;2023-04-30T12:43:21;12.77;;;6.25;;
37280;SDS011;23169;41.804;12.596;2023-04-30T12:45:51;13.43;;;6.18;;
37280;SDS011;23169;41.804;12.596;2023-04-30T12:48:22;14.60;;;6.13;;
37280;SDS011;23169;41.804;12.596;2023-04-30T12:50:55;14.18;;;6.00;;
37280;SDS011;23169;41.804;12.596;2023-04-30T12:53:28;16.42;;;6.05;;
37280;SDS011;23169;41.804;12.596;2023-04-30T12:56:16;10.27;;;5.53;;
37280;SDS011;23169;41.804;12.596;2023-04-30T12:58:47;13.20;;;5.47;;
37280;SDS011;23169;41.804;12.596;2023-04-30T13:01:20;10.18;;;5.43;;
37280;SDS011;23169;41.804;12.596;2023-04-30T13:03:52;13.40;;;5.78;;
37280;SDS011;23169;41.804;12.596;2023-04-30T13:06:20;12.02;;;5.95;;
37280;SDS011;23169;41.804;12.596;2023-04-30T13:08:50;12.23;;;6.10;;
37280;SDS011;23169;41.804;12.596;2023-04-30T13:11:18;12.90;;;5.90;;
37280;SDS011;23169;41.804;12.596;2023-04-30T13:13:48;11.13;;;5.72;;
37280;SDS011;23169;41.804;12.596;2023-04-30T13:16:17;17.55;;;6.18;;
37280;SDS011;23169;41.804;12.596;2023-04-30T13:18:45;14.25;;;6.10;;
37280;SDS011;23169;41.804;12.596;2023-04-30T13:21:14;14.82;;;5.97;;
37280;SDS011;23169;41.804;12.596;2023-04-30T13:23:45;13.30;;;5.85;;
37280;SDS011;23169;41.804;12.596;2023-04-30T13:26:14;11.63;;;5.72;;
37280;SDS011;23169;41.804;12.596;2023-04-30T13:28:44;10.68;;;5.50;;
37280;SDS011;23169;41.804;12.596;2023-04-30T13:31:12;10.73;;;5.88;;
37280;SDS011;23169;41.804;12.596;2023-04-30T13:33:42;10.95;;;5.88;;
37280;SDS011;23169;41.804;12.596;2023-04-30T13:36:11;11.80;;;5.55;;
37280;SDS011;23169;41.804;12.596;2023-04-30T13:38:41;13.02;;;5.63;;
37280;SDS011;23169;41.804;12.596;2023-04-30T13:41:10;15.68;;;6.05;;
37280;SDS011;23169;41.804;12.596;2023-04-30T13:43:41;13.05;;;5.60;;
37280;SDS011;23169;41.804;12.596;2023-04-30T13:46:11;12.40;;;5.78;;
37280;SDS011;23169;41.804;12.596;2023-04-30T13:48:40;13.57;;;5.93;;
37280;SDS011;23169;41.804;12.596;2023-04-30T13:51:10;13.77;;;5.72;;
37280;SDS011;23169;41.804;12.596;2023-04-30T13:53:38;10.27;;;5.60;;
37280;SDS011;23169;41.804;12.596;2023-04-30T13:56:09;13.02;;;6.40;;
37280;SDS011;23169;41.804;12.596;2023-04-30T13:58:37;15.30;;;6.57;;
37280;SDS011;23169;41.804;12.596;2023-04-30T14:01:06;13.05;;;6.05;;
37280;SDS011;23169;41.804;12.596;2023-04-30T14:03:36;12.68;;;5.82;;
37280;SDS011;23169;41.804;12.596;2023-04-30T14:06:05;15.68;;;6.15;;
37280;SDS011;23169;41.804;12.596;2023-04-30T14:08:34;14.77;;;7.22;;
37280;SDS011;23169;41.804;12.596;2023-04-30T14:11:03;17.35;;;6.80;;
37280;SDS011;23169;41.804;12.596;2023-04-30T14:13:36;15.15;;;6.88;;
37280;SDS011;23169;41.804;12.596;2023-04-30T14:16:05;20.45;;;7.45;;
37280;SDS011;23169;41.804;12.596;2023-04-30T14:18:35;21.90;;;8.60;;
37280;SDS011;23169;41.804;12.596;2023-04-30T14:21:06;23.88;;;9.10;;
37280;SDS011;23169;41.804;12.596;2023-04-30T14:23:35;27.70;;;9.45;;
37280;SDS011;23169;41.804;12.596;2023-04-30T14:26:05;19.50;;;8.10;;
37280;SDS011;23169;41.804;12.596;2023-04-30T14:28:35;20.30;;;7.70;;
37280;SDS011;23169;41.804;12.596;2023-04-30T14:31:04;20.40;;;8.80;;
37280;SDS011;23169;41.804;12.596;2023-04-30T14:33:33;22.40;;;9.70;;
37280;SDS011;23169;41.804;12.596;2023-04-30T14:36:01;20.63;;;8.77;;
37280;SDS011;23169;41.804;12.596;2023-04-30T14:38:31;21.35;;;9.07;;
37280;SDS011;23169;41.804;12.596;2023-04-30T14:40:59;20.63;;;9.05;;
37280;SDS011;23169;41.804;12.596;2023-04-30T14:43:30;21.80;;;9.98;;
37280;SDS011;23169;41.804;12.596;2023-04-30T14:45:58;20.85;;;9.68;;
37280;SDS011;23169;41.804;12.596;2023-04-30T14:48:28;19.60;;;9.02;;
37280;SDS011;23169;41.804;12.596;2023-04-30T14:50:56;19.05;;;9.10;;
37280;SDS011;23169;41.804;12.596;2023-04-30T14:53:25;22.38;;;10.90;;
37280;SDS011;23169;41.804;12.596;2023-04-30T14:55:54;21.42;;;10.30;;
37280;SDS011;23169;41.804;12.596;2023-04-30T14:58:26;20.90;;;10.18;;
37280;SDS011;23169;41.804;12.596;2023-04-30T15:00:57;22.38;;;10.45;;
37280;SDS011;23169;41.804;12.596;2023-04-30T15:03:27;20.92;;;10.07;;
37280;SDS011;23169;41.804;12.596;2023-04-30T15:05:56;20.80;;;9.52;;
37280;SDS011;23169;41.804;12.596;2023-04-30T15:08:25;24.65;;;11.32;;
37280;SDS011;23169;41.804;12.596;2023-04-30T15:11:02;19.38;;;10.02;;
37280;SDS011;23169;41.804;12.596;2023-04-30T15:13:41;23.55;;;10.73;;
37280;SDS011;23169;41.804;12.596;2023-04-30T15:16:16;22.73;;;10.48;;